Time;durP1;ratioP1;P1;durP2;ratioP2;P2;SDS_P1;SDS_P2;PMS_P1;PMS_P2;Temp;Humidity;BMP_temperature;BMP_pressure;BME280_temperature;BME280_humidity;BME280_pressure;Samples;Min_cycle;Max_cycle;Signal;HPM_P1;HPM_P2
2022/11/05 00:10:09;;;;;;;0.15;0.15;;;;;;;;;;5000328;28;20085;-45
2022/11/05 00:18:04;;;;;;;0.40;0.40;;;;;;;;;;5000644;28;20040;-50
2022/11/05 00:20:29;;;;;;;2.00;0.55;;;;;;;;;;4996509;28;20034;-48
2022/11/05 00:25:56;;;;;;;0.40;0.40;;;;;;;;;;4999202;28;20751;-47
2022/11/05 00:28:22;;;;;;;2.63;0.40;;;;;;;;;;4996186;28;20045;-45
2022/11/05 00:30:48;;;;;;;0.55;0.43;;;;;;;;;;5001722;28;20101;-48
2022/11/05 00:33:13;;;;;;;1.65;0.50;;;;;;;;;;4995214;28;20116;-45
2022/11/05 00:35:39;;;;;;;4.68;0.50;;;;;;;;;;4990952;28;20402;-47
2022/11/05 00:38:04;;;;;;;0.13;0.13;;;;;;;;;;5002799;28;20046;-46
2022/11/05 00:40:30;;;;;;;1.58;0.30;;;;;;;;;;4997961;28;20030;-46
2022/11/05 00:45:39;;;;;;;0.20;0.20;;;;;;;;;;4993911;28;20062;-47
2022/11/05 00:50:49;;;;;;;2.58;0.35;;;;;;;;;;4999280;28;20040;-47
2022/11/05 00:53:15;;;;;;;0.20;0.20;;;;;;;;;;4997089;28;20441;-45
2022/11/05 00:55:43;;;;;;;0.30;0.28;;;;;;;;;;4997139;28;20474;-45
2022/11/05 00:58:17;;;;;;;0.17;0.17;;;;;;;;;;5000198;28;20052;-48
2022/11/05 01:00:47;;;;;;;0.60;0.30;;;;;;;;;;4998413;28;20033;-44
2022/11/05 01:03:14;;;;;;;0.38;0.38;;;;;;;;;;4992844;28;20046;-47
2022/11/05 01:05:45;;;;;;;1.55;0.30;;;;;;;;;;4995269;28;20056;-50
2022/11/05 01:08:12;;;;;;;0.43;0.20;;;;;;;;;;4993759;28;20546;-50
2022/11/05 01:10:42;;;;;;;0.70;0.20;;;;;;;;;;4995884;28;20035;-45
2022/11/05 01:13:08;;;;;;;2.17;0.30;;;;;;;;;;4992489;28;20065;-45
2022/11/05 01:15:35;;;;;;;1.05;0.40;;;;;;;;;;4996492;28;20557;-48
2022/11/05 01:18:01;;;;;;;0.20;0.20;;;;;;;;;;4998450;28;20041;-52
2022/11/05 01:20:26;;;;;;;0.38;0.38;;;;;;;;;;4997005;28;20018;-45
2022/11/05 01:22:51;;;;;;;2.38;0.20;;;;;;;;;;4994295;28;20060;-45
2022/11/05 01:25:17;;;;;;;1.52;0.32;;;;;;;;;;4994904;28;20471;-44
2022/11/05 01:27:42;;;;;;;2.17;0.30;;;;;;;;;;4992101;28;20537;-52
2022/11/05 01:30:08;;;;;;;1.45;0.32;;;;;;;;;;5000396;28;20025;-46
2022/11/05 01:32:35;;;;;;;0.63;0.45;;;;;;;;;;4993774;28;20132;-46
2022/11/05 01:35:02;;;;;;;0.32;0.30;;;;;;;;;;4991390;28;20085;-45
2022/11/05 01:37:27;;;;;;;0.40;0.40;;;;;;;;;;4986847;28;20138;-45
2022/11/05 01:39:53;;;;;;;0.20;0.20;;;;;;;;;;4995907;28;20479;-47
2022/11/05 01:42:24;;;;;;;2.45;0.45;;;;;;;;;;4995330;28;20038;-48
2022/11/05 01:45:22;;;;;;;2.45;0.43;;;;;;;;;;5000384;28;20083;-48
2022/11/05 01:48:13;;;;;;;0.68;0.30;;;;;;;;;;4994078;28;20034;-44
2022/11/05 01:50:44;;;;;;;0.28;0.28;;;;;;;;;;4994917;28;20112;-48
2022/11/05 01:53:30;;;;;;;0.40;0.30;;;;;;;;;;4996611;28;20046;-47
2022/11/05 01:56:22;;;;;;;0.40;0.30;;;;;;;;;;4994348;28;20022;-45
2022/11/05 01:59:11;;;;;;;0.40;0.40;;;;;;;;;;4996951;28;20387;-52
2022/11/05 02:01:37;;;;;;;1.45;0.50;;;;;;;;;;4995940;28;20069;-48
2022/11/05 02:04:08;;;;;;;0.85;0.85;;;;;;;;;;4992124;28;20050;-45
2022/11/05 02:06:37;;;;;;;1.50;0.47;;;;;;;;;;5000196;28;20077;-47
2022/11/05 02:09:11;;;;;;;2.60;0.60;;;;;;;;;;4991628;28;20042;-52
2022/11/05 02:11:36;;;;;;;4.47;0.60;;;;;;;;;;4991565;28;20096;-47
2022/11/05 02:14:02;;;;;;;1.88;0.47;;;;;;;;;;4996386;28;20026;-44
2022/11/05 02:16:33;;;;;;;1.02;0.50;;;;;;;;;;4997193;28;20715;-46
2022/11/05 02:19:36;;;;;;;0.55;0.50;;;;;;;;;;4993782;28;20025;-45
2022/11/05 02:22:39;;;;;;;0.40;0.40;;;;;;;;;;4996560;28;20050;-49
2022/11/05 02:25:32;;;;;;;1.77;0.70;;;;;;;;;;4995982;28;20079;-47
2022/11/05 02:28:38;;;;;;;0.93;0.30;;;;;;;;;;4993302;28;20628;-44
2022/11/05 02:31:16;;;;;;;2.00;0.60;;;;;;;;;;4990060;28;20076;-45
2022/11/05 02:34:17;;;;;;;0.20;0.20;;;;;;;;;;4988459;28;20105;-47
2022/11/05 02:36:54;;;;;;;2.28;0.30;;;;;;;;;;4990071;28;20390;-47
2022/11/05 02:39:42;;;;;;;0.28;0.28;;;;;;;;;;4995216;28;20022;-44
2022/11/05 02:42:41;;;;;;;1.13;0.40;;;;;;;;;;4997797;28;20046;-51
2022/11/05 02:45:42;;;;;;;1.55;0.70;;;;;;;;;;5000693;28;20041;-53
2022/11/05 02:48:24;;;;;;;0.30;0.30;;;;;;;;;;4994210;28;20089;-46
2022/11/05 02:51:07;;;;;;;0.35;0.35;;;;;;;;;;4995803;28;20033;-47
2022/11/05 02:53:51;;;;;;;1.73;0.35;;;;;;;;;;4996689;28;20057;-46
2022/11/05 02:56:24;;;;;;;0.20;0.20;;;;;;;;;;4996544;28;20053;-45
2022/11/05 02:58:49;;;;;;;;;;;;;;;;;;4997534;28;20022;-48
2022/11/05 03:01:14;;;;;;;0.60;0.38;;;;;;;;;;4997212;28;20555;-49
2022/11/05 03:03:49;;;;;;;1.48;0.20;;;;;;;;;;4993731;28;20062;-47
2022/11/05 03:06:40;;;;;;;1.20;0.30;;;;;;;;;;4996593;28;20037;-51
2022/11/05 03:09:15;;;;;;;0.30;0.30;;;;;;;;;;4994146;28;20041;-52
2022/11/05 03:11:49;;;;;;;0.20;0.20;;;;;;;;;;4994452;28;20046;-45
2022/11/05 03:14:28;;;;;;;0.20;0.20;;;;;;;;;;4996318;28;20030;-52
2022/11/05 03:17:28;;;;;;;1.85;0.50;;;;;;;;;;4990036;28;20112;-48
2022/11/05 03:20:18;;;;;;;5.03;0.70;;;;;;;;;;4988880;28;20035;-45
2022/11/05 03:22:53;;;;;;;0.80;0.30;;;;;;;;;;4989777;28;20046;-47
2022/11/05 03:25:21;;;;;;;3.03;0.50;;;;;;;;;;4991351;28;20044;-46
2022/11/05 03:27:51;;;;;;;4.78;0.60;;;;;;;;;;4990933;28;20039;-47
2022/11/05 03:30:18;;;;;;;0.52;0.52;;;;;;;;;;4993870;28;20498;-47
2022/11/05 03:32:49;;;;;;;0.30;0.30;;;;;;;;;;4995277;28;20045;-48
2022/11/05 03:35:23;;;;;;;0.80;0.55;;;;;;;;;;4999750;28;20418;-45
2022/11/05 03:37:53;;;;;;;1.02;0.60;;;;;;;;;;4993879;28;20053;-45
2022/11/05 03:40:22;;;;;;;0.60;0.60;;;;;;;;;;4996740;28;20191;-44
2022/11/05 03:42:54;;;;;;;4.32;0.73;;;;;;;;;;4995740;28;20062;-45
2022/11/05 03:45:29;;;;;;;0.30;0.30;;;;;;;;;;4994691;28;20042;-50
2022/11/05 03:47:58;;;;;;;1.05;0.60;;;;;;;;;;4999496;28;20038;-48
2022/11/05 03:50:31;;;;;;;0.77;0.43;;;;;;;;;;4996240;28;20022;-45
2022/11/05 03:53:01;;;;;;;;;;;;;;;;;;4994469;28;20636;-46
2022/11/05 03:55:51;;;;;;;2.88;0.70;;;;;;;;;;4992599;28;19921;-48
2022/11/05 03:58:20;;;;;;;2.92;0.73;;;;;;;;;;4994057;28;20517;-46
2022/11/05 04:00:47;;;;;;;1.13;0.65;;;;;;;;;;4990817;28;20027;-45
2022/11/05 04:03:12;;;;;;;2.40;0.50;;;;;;;;;;4998192;28;20072;-47
2022/11/05 04:05:37;;;;;;;1.98;0.60;;;;;;;;;;4998493;28;20068;-45
2022/11/05 04:13:32;;;;;;;1.95;0.60;;;;;;;;;;4998652;28;20058;-45
2022/11/05 04:18:42;;;;;;;1.48;0.65;;;;;;;;;;4992354;28;20091;-48
2022/11/05 04:24:08;;;;;;;1.13;0.60;;;;;;;;;;4999230;28;20048;-46
2022/11/05 04:26:38;;;;;;;0.65;0.47;;;;;;;;;;4992750;28;20052;-46
2022/11/05 04:31:48;;;;;;;5.07;0.60;;;;;;;;;;4995885;28;20399;-45
2022/11/05 04:34:15;;;;;;;1.35;0.77;;;;;;;;;;4998192;28;20035;-45
2022/11/05 04:36:41;;;;;;;2.10;0.52;;;;;;;;;;4999063;28;20034;-46
2022/11/05 04:39:06;;;;;;;0.90;0.65;;;;;;;;;;4996798;28;20481;-46
2022/11/05 04:41:31;;;;;;;2.50;0.52;;;;;;;;;;4995801;28;20057;-51
2022/11/05 04:43:57;;;;;;;1.30;0.47;;;;;;;;;;4998608;28;20566;-45
2022/11/05 04:46:22;;;;;;;0.55;0.40;;;;;;;;;;5001908;28;20050;-45
2022/11/05 04:48:47;;;;;;;1.00;0.50;;;;;;;;;;5000007;28;20437;-45
2022/11/05 04:51:13;;;;;;;1.92;0.60;;;;;;;;;;4994594;28;20037;-45
2022/11/05 04:53:38;;;;;;;1.13;0.40;;;;;;;;;;4999426;28;20577;-46
2022/11/05 04:56:20;;;;;;;2.42;0.77;;;;;;;;;;4998901;28;20128;-48
2022/11/05 04:58:46;;;;;;;0.65;0.40;;;;;;;;;;5002063;28;20651;-45
2022/11/05 05:01:13;;;;;;;4.90;0.40;;;;;;;;;;4990323;28;20113;-47
2022/11/05 05:03:38;;;;;;;1.85;0.57;;;;;;;;;;4995589;28;20040;-47
2022/11/05 05:06:04;;;;;;;1.20;0.60;;;;;;;;;;4999619;28;20041;-45
2022/11/05 05:08:29;;;;;;;1.08;0.45;;;;;;;;;;4997288;28;20499;-45
2022/11/05 05:10:54;;;;;;;0.95;0.55;;;;;;;;;;5000881;28;20034;-53
2022/11/05 05:13:20;;;;;;;0.63;0.50;;;;;;;;;;4993759;28;20494;-45
2022/11/05 05:15:45;;;;;;;1.27;0.52;;;;;;;;;;4997179;28;20029;-50
2022/11/05 05:18:10;;;;;;;1.85;0.98;;;;;;;;;;4995342;28;20050;-45
2022/11/05 05:23:19;;;;;;;0.32;0.32;;;;;;;;;;4991541;28;20057;-46
2022/11/05 05:25:45;;;;;;;3.67;1.50;;;;;;;;;;4998702;28;20041;-47
2022/11/05 05:28:10;;;;;;;1.42;0.80;;;;;;;;;;4996052;28;20043;-47
2022/11/05 05:30:35;;;;;;;0.55;0.55;;;;;;;;;;4997224;28;20076;-52
2022/11/05 05:33:02;;;;;;;1.50;0.82;;;;;;;;;;4995137;28;20608;-45
2022/11/05 05:35:28;;;;;;;4.03;0.70;;;;;;;;;;4996733;28;20042;-46
2022/11/05 05:37:56;;;;;;;1.40;0.52;;;;;;;;;;4998362;28;20174;-45
2022/11/05 05:40:22;;;;;;;1.25;0.80;;;;;;;;;;4995638;28;20483;-46
2022/11/05 05:42:53;;;;;;;5.88;0.90;;;;;;;;;;4997544;28;20125;-45
2022/11/05 05:45:18;;;;;;;2.95;0.85;;;;;;;;;;4994159;28;20044;-45
2022/11/05 05:47:43;;;;;;;1.85;0.80;;;;;;;;;;4998196;28;20035;-45
2022/11/05 05:50:09;;;;;;;1.85;0.80;;;;;;;;;;4995189;28;20109;-45
2022/11/05 05:52:34;;;;;;;0.90;0.80;;;;;;;;;;4993779;28;20100;-45
2022/11/05 05:54:59;;;;;;;0.60;0.60;;;;;;;;;;4998135;28;20029;-45
2022/11/05 05:57:25;;;;;;;0.68;0.68;;;;;;;;;;4990683;28;20434;-49
2022/11/05 05:59:50;;;;;;;1.08;0.65;;;;;;;;;;4993559;28;20027;-45
2022/11/05 06:02:15;;;;;;;0.65;0.63;;;;;;;;;;4991167;28;20050;-47
2022/11/05 06:04:41;;;;;;;0.60;0.60;;;;;;;;;;4997585;28;20030;-47
2022/11/05 06:07:06;;;;;;;1.02;0.60;;;;;;;;;;4990830;28;20096;-47
2022/11/05 06:09:31;;;;;;;2.13;0.55;;;;;;;;;;4993525;28;20045;-46
2022/11/05 06:11:57;;;;;;;0.93;0.60;;;;;;;;;;4996033;28;20065;-45
2022/11/05 06:14:22;;;;;;;0.70;0.70;;;;;;;;;;4991541;28;20441;-45
2022/11/05 06:16:47;;;;;;;0.77;0.77;;;;;;;;;;4995158;28;20117;-49
2022/11/05 06:19:13;;;;;;;5.00;1.42;;;;;;;;;;4996817;28;20038;-44
2022/11/05 06:21:38;;;;;;;0.65;0.65;;;;;;;;;;4996995;28;20130;-45
2022/11/05 06:24:04;;;;;;;1.13;0.90;;;;;;;;;;4995805;28;20084;-45
2022/11/05 06:26:29;;;;;;;2.00;0.85;;;;;;;;;;4993703;28;20042;-45
2022/11/05 06:28:54;;;;;;;1.33;0.70;;;;;;;;;;4995942;28;20460;-48
2022/11/05 06:31:21;;;;;;;1.75;0.80;;;;;;;;;;4995480;28;20049;-46
2022/11/05 06:33:46;;;;;;;1.38;0.80;;;;;;;;;;4996174;28;20108;-49
2022/11/05 06:36:14;;;;;;;1.75;0.90;;;;;;;;;;4998444;28;20116;-46
2022/11/05 06:38:40;;;;;;;1.02;0.77;;;;;;;;;;4998847;28;20030;-45
2022/11/05 06:41:05;;;;;;;2.55;0.70;;;;;;;;;;4991047;28;20092;-46
2022/11/05 06:43:31;;;;;;;1.20;0.80;;;;;;;;;;4994939;28;20022;-46
2022/11/05 06:46:00;;;;;;;0.60;0.50;;;;;;;;;;4998503;28;20041;-48
2022/11/05 06:48:25;;;;;;;2.22;1.00;;;;;;;;;;4996380;28;20087;-47
2022/11/05 06:50:50;;;;;;;1.00;0.88;;;;;;;;;;4991984;28;20582;-45
2022/11/05 06:53:16;;;;;;;1.17;0.90;;;;;;;;;;4992422;28;20038;-47
2022/11/05 06:55:43;;;;;;;5.43;1.00;;;;;;;;;;4996949;28;20037;-45
2022/11/05 06:58:09;;;;;;;0.90;0.90;;;;;;;;;;4989199;28;20038;-45
2022/11/05 07:00:35;;;;;;;2.13;1.10;;;;;;;;;;4991503;28;20034;-45
2022/11/05 07:03:04;;;;;;;2.45;0.90;;;;;;;;;;4989343;28;20041;-46
2022/11/05 07:05:31;;;;;;;2.90;0.75;;;;;;;;;;4994688;28;20538;-46
2022/11/05 07:07:56;;;;;;;3.85;1.02;;;;;;;;;;4996110;28;20043;-46
2022/11/05 07:10:22;;;;;;;1.65;0.93;;;;;;;;;;4997298;28;20053;-45
2022/11/05 07:12:47;;;;;;;5.05;0.80;;;;;;;;;;4996269;28;20034;-47
2022/11/05 07:15:13;;;;;;;1.48;0.60;;;;;;;;;;4993200;28;20027;-47
2022/11/05 07:17:39;;;;;;;4.32;1.13;;;;;;;;;;4993719;28;20566;-45
2022/11/05 07:20:05;;;;;;;1.90;1.30;;;;;;;;;;4996787;28;20117;-48
2022/11/05 07:22:31;;;;;;;0.82;0.82;;;;;;;;;;4990700;28;20404;-45
2022/11/05 07:24:56;;;;;;;1.67;1.40;;;;;;;;;;4988559;28;20038;-45
2022/11/05 07:27:22;;;;;;;3.47;1.13;;;;;;;;;;4996326;28;20049;-45
2022/11/05 07:29:47;;;;;;;3.83;1.50;;;;;;;;;;4999032;28;20105;-46
2022/11/05 07:32:13;;;;;;;0.80;0.80;;;;;;;;;;4993572;28;20057;-46
2022/11/05 07:34:38;;;;;;;2.28;1.40;;;;;;;;;;4992033;28;20124;-44
2022/11/05 07:37:03;;;;;;;2.65;1.30;;;;;;;;;;4996704;28;20445;-50
2022/11/05 07:39:29;;;;;;;2.28;1.38;;;;;;;;;;5001155;28;20034;-47
2022/11/05 07:41:54;;;;;;;3.35;1.55;;;;;;;;;;4998773;28;20130;-49
2022/11/05 07:44:20;;;;;;;3.25;0.90;;;;;;;;;;4998096;28;20062;-46
2022/11/05 07:46:46;;;;;;;1.83;1.00;;;;;;;;;;4997797;28;20042;-46
2022/11/05 07:49:11;;;;;;;1.52;1.30;;;;;;;;;;4994952;28;20049;-45
2022/11/05 07:51:36;;;;;;;2.15;1.30;;;;;;;;;;4989518;28;20458;-48
2022/11/05 07:54:02;;;;;;;1.05;0.90;;;;;;;;;;4997166;28;20022;-48
2022/11/05 07:56:27;;;;;;;3.35;1.00;;;;;;;;;;4992310;28;20058;-46
2022/11/05 07:58:53;;;;;;;1.55;1.05;;;;;;;;;;4997564;28;20052;-47
2022/11/05 08:01:18;;;;;;;6.50;1.13;;;;;;;;;;4998054;28;20054;-46
2022/11/05 08:03:43;;;;;;;6.97;1.20;;;;;;;;;;4997504;28;20457;-45
2022/11/05 08:06:09;;;;;;;1.15;0.93;;;;;;;;;;4999660;28;20095;-48
2022/11/05 08:08:34;;;;;;;1.27;1.10;;;;;;;;;;4998687;28;20076;-46
2022/11/05 08:11:08;;;;;;;1.15;0.90;;;;;;;;;;4997477;28;20049;-46
2022/11/05 08:13:34;;;;;;;1.98;1.13;;;;;;;;;;4994485;28;20030;-47
2022/11/05 08:16:00;;;;;;;3.28;1.00;;;;;;;;;;4995377;28;20443;-46
2022/11/05 08:18:30;;;;;;;1.65;1.15;;;;;;;;;;4985172;28;20038;-49
2022/11/05 08:21:00;;;;;;;1.85;1.13;;;;;;;;;;4979984;28;20037;-46
2022/11/05 08:23:26;;;;;;;1.60;0.95;;;;;;;;;;4981676;28;20126;-45
2022/11/05 08:25:52;;;;;;;3.92;1.10;;;;;;;;;;4985811;28;20087;-47
2022/11/05 08:28:18;;;;;;;1.20;1.10;;;;;;;;;;4986262;28;21986;-54
2022/11/05 08:30:48;;;;;;;0.75;0.73;;;;;;;;;;4985704;28;20045;-50
2022/11/05 08:33:14;;;;;;;3.08;1.08;;;;;;;;;;4976868;28;20057;-47
2022/11/05 08:35:40;;;;;;;1.23;0.93;;;;;;;;;;4987642;28;20030;-49
2022/11/05 08:38:07;;;;;;;1.38;1.05;;;;;;;;;;4991981;28;20070;-50
2022/11/05 08:40:34;;;;;;;1.00;0.90;;;;;;;;;;4984022;28;20530;-49
2022/11/05 08:43:04;;;;;;;0.80;0.80;;;;;;;;;;4984891;28;20331;-46
2022/11/05 08:45:30;;;;;;;6.57;1.02;;;;;;;;;;4984159;28;20025;-46
2022/11/05 08:48:16;;;;;;;1.08;0.73;;;;;;;;;;4978546;28;20050;-48
2022/11/05 08:50:42;;;;;;;1.10;0.90;;;;;;;;;;4983548;28;20042;-47
2022/11/05 08:53:08;;;;;;;1.75;1.10;;;;;;;;;;4992024;28;20420;-46
2022/11/05 08:55:34;;;;;;;0.82;0.82;;;;;;;;;;4985904;28;20041;-44
2022/11/05 08:58:02;;;;;;;2.47;0.88;;;;;;;;;;4989315;28;20030;-45
2022/11/05 09:00:30;;;;;;;3.38;1.08;;;;;;;;;;4991526;28;20113;-46
2022/11/05 09:03:00;;;;;;;1.17;0.75;;;;;;;;;;4990428;28;20619;-45
2022/11/05 09:05:27;;;;;;;2.28;0.90;;;;;;;;;;4990591;28;20050;-46
2022/11/05 09:07:52;;;;;;;2.33;1.00;;;;;;;;;;4990887;28;20415;-45
2022/11/05 09:10:17;;;;;;;1.77;1.10;;;;;;;;;;4994770;28;20034;-45
2022/11/05 09:12:43;;;;;;;5.60;1.00;;;;;;;;;;4986799;28;20076;-47
2022/11/05 09:15:08;;;;;;;0.82;0.82;;;;;;;;;;4992573;28;20044;-44
2022/11/05 09:17:34;;;;;;;3.22;1.00;;;;;;;;;;4990455;28;20898;-46
2022/11/05 09:20:01;;;;;;;3.42;0.90;;;;;;;;;;4992918;28;20053;-46
2022/11/05 09:22:26;;;;;;;1.42;1.00;;;;;;;;;;4990206;28;20081;-45
2022/11/05 09:24:51;;;;;;;0.93;0.90;;;;;;;;;;4984952;28;22419;-48
2022/11/05 09:27:17;;;;;;;2.85;1.10;;;;;;;;;;4991312;28;20110;-45
2022/11/05 09:29:42;;;;;;;0.70;0.70;;;;;;;;;;4990579;28;20022;-44
2022/11/05 09:32:08;;;;;;;3.13;0.90;;;;;;;;;;4984075;28;20042;-44
2022/11/05 09:34:34;;;;;;;2.30;0.90;;;;;;;;;;4996174;28;20026;-46
2022/11/05 09:36:59;;;;;;;2.08;1.15;;;;;;;;;;4984731;28;20116;-47
2022/11/05 09:39:25;;;;;;;1.15;1.00;;;;;;;;;;4995580;28;20113;-46
2022/11/05 09:41:58;;;;;;;1.90;1.10;;;;;;;;;;4990393;28;20069;-47
2022/11/05 09:44:47;;;;;;;1.10;1.00;;;;;;;;;;4997458;28;20080;-44
2022/11/05 09:47:23;;;;;;;3.03;0.95;;;;;;;;;;4995908;28;20898;-44
2022/11/05 09:49:52;;;;;;;1.15;1.00;;;;;;;;;;4995639;28;20044;-47
2022/11/05 09:52:22;;;;;;;1.00;0.85;;;;;;;;;;4999280;28;20034;-48
2022/11/05 09:54:49;;;;;;;1.20;1.10;;;;;;;;;;4999562;28;20026;-44
2022/11/05 09:57:31;;;;;;;0.65;0.65;;;;;;;;;;4995244;28;20099;-49
2022/11/05 10:00:00;;;;;;;1.20;0.85;;;;;;;;;;4996282;28;20023;-44
2022/11/05 10:02:37;;;;;;;1.15;0.98;;;;;;;;;;4994488;28;20044;-44
2022/11/05 10:05:06;;;;;;;1.30;0.95;;;;;;;;;;4993834;28;20034;-45
2022/11/05 10:07:47;;;;;;;2.15;0.80;;;;;;;;;;4996461;28;20121;-50
2022/11/05 10:10:32;;;;;;;2.78;1.17;;;;;;;;;;4993420;28;20371;-44
2022/11/05 10:13:03;;;;;;;3.90;1.02;;;;;;;;;;4998501;28;20072;-44
2022/11/05 10:16:10;;;;;;;3.60;1.45;;;;;;;;;;4992704;28;20043;-48
2022/11/05 10:18:39;;;;;;;1.63;0.90;;;;;;;;;;4976009;28;20042;-46
2022/11/05 10:21:05;;;;;;;2.40;0.85;;;;;;;;;;4970996;28;20094;-45
2022/11/05 10:23:31;;;;;;;0.68;0.68;;;;;;;;;;4959955;28;20047;-46
2022/11/05 10:26:04;;;;;;;1.00;0.90;;;;;;;;;;4972661;28;20039;-48
2022/11/05 10:28:32;;;;;;;1.35;0.95;;;;;;;;;;4973924;28;20380;-48
2022/11/05 10:31:01;;;;;;;1.52;0.80;;;;;;;;;;4974179;28;20154;-46
2022/11/05 10:33:34;;;;;;;0.77;0.65;;;;;;;;;;4975501;28;20064;-47
2022/11/05 10:36:05;;;;;;;1.10;0.90;;;;;;;;;;4975107;28;20038;-48
2022/11/05 10:38:31;;;;;;;3.30;1.08;;;;;;;;;;4973757;28;20061;-46
2022/11/05 10:41:30;;;;;;;0.73;0.73;;;;;;;;;;4967235;28;20038;-45
2022/11/05 10:44:29;;;;;;;1.42;0.60;;;;;;;;;;4964970;28;20046;-46
2022/11/05 10:47:05;;;;;;;1.95;1.20;;;;;;;;;;4976786;28;20427;-50
2022/11/05 10:50:16;;;;;;;6.18;0.82;;;;;;;;;;4987909;28;20380;-47
2022/11/05 10:52:50;;;;;;;0.80;0.80;;;;;;;;;;4975916;28;20034;-45
2022/11/05 10:55:22;;;;;;;2.50;0.85;;;;;;;;;;4972711;28;20050;-44
2022/11/05 10:57:48;;;;;;;2.35;0.85;;;;;;;;;;4967503;28;20034;-43
2022/11/05 11:00:13;;;;;;;1.35;0.85;;;;;;;;;;4972122;28;20483;-48
2022/11/05 11:02:44;;;;;;;1.00;0.90;;;;;;;;;;4974626;28;20045;-49
2022/11/05 11:05:17;;;;;;;1.65;0.90;;;;;;;;;;4974498;28;20042;-44
2022/11/05 11:07:43;;;;;;;2.40;1.30;;;;;;;;;;4974755;28;20122;-44
2022/11/05 11:10:20;;;;;;;1.20;0.90;;;;;;;;;;4976503;28;20133;-45
2022/11/05 11:12:48;;;;;;;5.43;0.85;;;;;;;;;;4977991;28;20034;-45
2022/11/05 11:15:36;;;;;;;0.95;0.95;;;;;;;;;;4976468;28;20108;-43
2022/11/05 11:18:37;;;;;;;1.08;1.00;;;;;;;;;;4981461;28;20039;-47
2022/11/05 11:21:18;;;;;;;2.80;1.25;;;;;;;;;;4979847;28;20037;-46
2022/11/05 11:24:02;;;;;;;1.45;1.00;;;;;;;;;;4986563;28;20042;-45
2022/11/05 11:26:31;;;;;;;2.30;0.98;;;;;;;;;;5002112;28;20391;-46
2022/11/05 11:29:14;;;;;;;2.08;1.13;;;;;;;;;;5001256;28;20069;-46
2022/11/05 11:31:40;;;;;;;4.05;1.05;;;;;;;;;;4999884;28;20035;-50
2022/11/05 11:34:17;;;;;;;2.33;1.35;;;;;;;;;;5005526;28;20069;-46
2022/11/05 11:36:45;;;;;;;1.30;0.95;;;;;;;;;;4995923;28;20036;-42
2022/11/05 11:39:18;;;;;;;2.38;1.40;;;;;;;;;;5002298;28;20696;-51
2022/11/05 11:41:45;;;;;;;1.63;0.90;;;;;;;;;;4999915;28;20045;-47
2022/11/05 11:44:16;;;;;;;1.42;0.82;;;;;;;;;;5001635;28;20119;-49
2022/11/05 11:46:47;;;;;;;2.40;1.25;;;;;;;;;;5001600;28;20034;-48
2022/11/05 11:49:43;;;;;;;2.28;1.20;;;;;;;;;;5001065;28;20047;-47
2022/11/05 11:52:12;;;;;;;1.65;1.15;;;;;;;;;;5001786;28;20046;-49
2022/11/05 11:54:38;;;;;;;1.85;1.05;;;;;;;;;;5006573;28;20021;-51
2022/11/05 11:57:19;;;;;;;1.90;1.10;;;;;;;;;;4998851;28;20563;-50
2022/11/05 11:59:45;;;;;;;1.58;1.05;;;;;;;;;;5001979;28;21181;-47
2022/11/05 12:02:16;;;;;;;1.20;1.10;;;;;;;;;;5005587;28;20470;-47
2022/11/05 12:05:09;;;;;;;1.80;1.10;;;;;;;;;;4998862;28;20107;-53
2022/11/05 12:07:51;;;;;;;1.10;1.00;;;;;;;;;;5000643;28;20137;-51
2022/11/05 12:10:38;;;;;;;1.95;1.15;;;;;;;;;;5003084;28;20040;-50
2022/11/05 12:13:22;;;;;;;1.38;0.90;;;;;;;;;;4998687;28;20044;-48
2022/11/05 12:16:02;;;;;;;4.75;1.20;;;;;;;;;;5004963;28;20034;-51
2022/11/05 12:18:50;;;;;;;1.52;0.95;;;;;;;;;;4998737;28;20053;-47
2022/11/05 12:21:43;;;;;;;4.15;1.20;;;;;;;;;;5000537;28;20061;-49
2022/11/05 12:24:48;;;;;;;0.90;0.90;;;;;;;;;;4999059;28;20141;-46
2022/11/05 12:27:38;;;;;;;0.90;0.90;;;;;;;;;;4999088;28;20649;-49
2022/11/05 12:30:17;;;;;;;2.72;0.90;;;;;;;;;;4999080;28;20026;-49
2022/11/05 12:32:55;;;;;;;2.50;1.23;;;;;;;;;;4997976;28;20045;-50
2022/11/05 12:35:26;;;;;;;1.98;0.93;;;;;;;;;;4992324;28;20030;-52
2022/11/05 12:37:59;;;;;;;1.67;1.17;;;;;;;;;;4996830;28;20065;-50
2022/11/05 12:40:37;;;;;;;0.90;0.70;;;;;;;;;;5001585;28;20042;-49
2022/11/05 12:43:08;;;;;;;3.58;1.00;;;;;;;;;;4996824;28;20404;-47
2022/11/05 12:45:45;;;;;;;3.05;0.90;;;;;;;;;;4998529;28;20034;-47
2022/11/05 12:48:29;;;;;;;1.00;0.90;;;;;;;;;;4997435;28;20131;-44
2022/11/05 12:51:24;;;;;;;1.02;0.88;;;;;;;;;;4996316;28;20050;-45
2022/11/05 12:53:55;;;;;;;3.20;1.08;;;;;;;;;;4997558;28;20026;-45
2022/11/05 12:56:26;;;;;;;2.03;1.23;;;;;;;;;;4993360;28;20440;-45
2022/11/05 12:59:04;;;;;;;1.50;1.02;;;;;;;;;;4997110;28;20050;-45
2022/11/05 13:01:38;;;;;;;2.40;0.95;;;;;;;;;;5000338;28;20038;-45
2022/11/05 13:04:31;;;;;;;1.45;1.00;;;;;;;;;;4998450;28;20157;-45
2022/11/05 13:07:00;;;;;;;2.65;1.20;;;;;;;;;;4997353;28;20040;-45
2022/11/05 13:09:35;;;;;;;7.50;1.70;;;;;;;;;;4996256;28;20041;-44
2022/11/05 13:12:10;;;;;;;1.98;1.10;;;;;;;;;;4996711;28;20035;-47
2022/11/05 13:14:48;;;;;;;3.13;1.00;;;;;;;;;;4996034;28;20491;-44
2022/11/05 13:17:19;;;;;;;6.68;2.17;;;;;;;;;;4993988;28;20038;-44
2022/11/05 13:19:52;;;;;;;3.70;1.38;;;;;;;;;;4996584;28;20485;-46
2022/11/05 13:22:24;;;;;;;2.58;1.17;;;;;;;;;;4988408;28;20195;-44
2022/11/05 13:24:54;;;;;;;2.37;1.33;;;;;;;;;;4997131;28;20041;-45
2022/11/05 13:27:44;;;;;;;3.20;1.30;;;;;;;;;;4998380;28;20452;-48
2022/11/05 13:30:18;;;;;;;1.23;1.00;;;;;;;;;;4991817;28;20161;-44
2022/11/05 13:32:48;;;;;;;1.58;0.90;;;;;;;;;;4994768;28;20096;-44
2022/11/05 13:35:20;;;;;;;4.25;0.95;;;;;;;;;;4995439;28;20026;-44
2022/11/05 13:40:45;;;;;;;6.90;1.42;;;;;;;;;;4993387;28;20862;-44
2022/11/05 13:43:16;;;;;;;2.72;1.33;;;;;;;;;;4992333;28;20049;-46
2022/11/05 13:46:19;;;;;;;2.30;1.10;;;;;;;;;;4990747;28;20037;-45
2022/11/05 13:49:05;;;;;;;1.52;1.25;;;;;;;;;;4918251;29;20127;-44
2022/11/05 13:51:39;;;;;;;2.40;1.30;;;;;;;;;;4920132;29;20040;-44
2022/11/05 13:54:23;;;;;;;6.07;1.42;;;;;;;;;;4914176;29;20136;-50
2022/11/05 13:57:19;;;;;;;3.03;1.50;;;;;;;;;;4916252;29;20035;-45
2022/11/05 14:00:10;;;;;;;4.70;1.60;;;;;;;;;;4921068;29;20098;-44
2022/11/05 14:02:42;;;;;;;1.92;1.10;;;;;;;;;;4914097;29;20036;-45
2022/11/05 14:05:32;;;;;;;1.45;1.23;;;;;;;;;;4920693;29;20036;-44
2022/11/05 14:08:01;;;;;;;2.75;1.35;;;;;;;;;;4916062;29;20134;-44
2022/11/05 14:10:44;;;;;;;1.83;1.60;;;;;;;;;;4916593;29;20036;-44
2022/11/05 14:13:23;;;;;;;3.03;1.00;;;;;;;;;;4919625;29;20047;-44
2022/11/05 14:16:19;;;;;;;3.33;1.02;;;;;;;;;;4919035;29;20040;-45
2022/11/05 14:19:14;;;;;;;2.13;1.10;;;;;;;;;;4909861;29;20457;-44
2022/11/05 14:21:48;;;;;;;3.08;1.20;;;;;;;;;;4917400;29;20035;-44
2022/11/05 14:24:25;;;;;;;1.58;1.00;;;;;;;;;;4912719;29;20044;-44
2022/11/05 14:26:59;;;;;;;1.27;1.05;;;;;;;;;;4988698;28;20125;-43
2022/11/05 14:29:47;;;;;;;1.42;1.33;;;;;;;;;;4996875;28;20399;-46
2022/11/05 14:32:15;;;;;;;6.03;1.20;;;;;;;;;;4994268;28;20398;-44
2022/11/05 14:34:54;;;;;;;1.67;1.40;;;;;;;;;;4989994;28;20109;-50
2022/11/05 14:37:55;;;;;;;2.38;1.10;;;;;;;;;;4997251;28;20046;-44
2022/11/05 14:40:20;;;;;;;3.13;0.95;;;;;;;;;;4992920;28;20022;-45
2022/11/05 14:42:58;;;;;;;1.10;1.00;;;;;;;;;;4997278;28;20061;-45
2022/11/05 14:45:33;;;;;;;1.10;1.00;;;;;;;;;;4996276;28;20533;-45
2022/11/05 14:48:05;;;;;;;1.08;1.00;;;;;;;;;;4994556;28;20402;-45
2022/11/05 14:50:38;;;;;;;2.15;1.20;;;;;;;;;;4991615;28;20038;-44
2022/11/05 14:53:22;;;;;;;2.63;1.10;;;;;;;;;;4994734;28;20041;-45
2022/11/05 14:55:58;;;;;;;3.63;1.00;;;;;;;;;;4991004;28;20513;-44
2022/11/05 14:58:30;;;;;;;2.88;1.20;;;;;;;;;;4993087;28;20521;-46
2022/11/05 15:00:56;;;;;;;1.73;1.17;;;;;;;;;;4995846;28;20034;-47
2022/11/05 15:03:40;;;;;;;2.05;1.20;;;;;;;;;;4997811;28;20041;-44
2022/11/05 15:06:27;;;;;;;5.82;1.08;;;;;;;;;;4988987;28;20034;-44
2022/11/05 15:09:17;;;;;;;1.70;1.00;;;;;;;;;;4998525;28;20395;-48
2022/11/05 15:12:08;;;;;;;2.38;0.93;;;;;;;;;;4996143;28;20033;-44
2022/11/05 15:14:39;;;;;;;3.67;1.38;;;;;;;;;;4962053;28;20177;-45
2022/11/05 15:17:16;;;;;;;2.80;1.10;;;;;;;;;;4965202;28;20085;-44
2022/11/05 15:19:43;;;;;;;2.25;1.35;;;;;;;;;;4965402;28;20059;-44
2022/11/05 15:22:27;;;;;;;1.88;1.10;;;;;;;;;;4963035;28;20050;-46
2022/11/05 15:24:54;;;;;;;1.15;0.95;;;;;;;;;;4960361;28;20777;-45
2022/11/05 15:27:40;;;;;;;3.88;1.00;;;;;;;;;;4964566;28;20142;-43
2022/11/05 15:30:24;;;;;;;2.00;1.20;;;;;;;;;;4964391;28;20049;-46
2022/11/05 15:32:50;;;;;;;1.63;1.05;;;;;;;;;;4963816;28;20062;-46
2022/11/05 15:35:27;;;;;;;3.10;1.10;;;;;;;;;;4965423;28;20027;-46
2022/11/05 15:37:56;;;;;;;1.42;1.10;;;;;;;;;;4964017;28;20050;-49
2022/11/05 15:40:26;;;;;;;4.75;1.30;;;;;;;;;;4958910;28;20097;-49
2022/11/05 15:43:18;;;;;;;2.05;1.38;;;;;;;;;;4964571;28;20553;-44
2022/11/05 15:46:19;;;;;;;1.10;1.00;;;;;;;;;;4962171;28;20511;-45
2022/11/05 15:48:51;;;;;;;4.03;1.42;;;;;;;;;;4953112;28;20035;-49
2022/11/05 15:51:18;;;;;;;6.15;1.23;;;;;;;;;;4973748;28;20404;-44
2022/11/05 15:53:43;;;;;;;2.22;1.10;;;;;;;;;;4996516;28;20488;-47
2022/11/05 15:56:23;;;;;;;1.45;1.10;;;;;;;;;;4997964;28;20037;-46
2022/11/05 15:58:53;;;;;;;1.30;1.20;;;;;;;;;;4991236;28;20050;-44